Terminal Aerodrome Forecast
Issued by NWS Atlanta, GA

Current Version | Previous Version | Text Only | Print | Product List | Glossary On
Versions: 1 2 3 4 5 6 7 8 9 10 11 12 13 14 15 16 17
000
FTUS42 KFFC 271916 AAA
TAFMCN
TAF AMD
KMCN 271916Z 2719/2818 20010G20KT P6SM SCT060
      TEMPO 2719/2720 VRB15G30KT 1SM +TSRA BR BKN010CB
     FM272100 24012KT P6SM VCSH BKN025
     FM272300 25010KT P6SM SCT030
     FM280100 26005KT P6SM SCT250
     FM281000 19003KT 6SM BR BKN009
     FM281500 17008KT P6SM BKN010=

USA.gov is the U.S. government's official web portal to all federal, state and local government web resources and services.